sensor_id;sensor_type;location;lat;lon;timestamp;pressure;altitude;pressure_sealevel;temperature;humidity
8061;BME280;4073;42.626;25.386;2023-02-28T00:00:11;97731.53;;;10.97;100.00
8061;BME280;4073;42.626;25.386;2023-02-28T00:02:38;97727.28;;;10.96;100.00
8061;BME280;4073;42.626;25.386;2023-02-28T00:05:04;97741.97;;;10.94;100.00
8061;BME280;4073;42.626;25.386;2023-02-28T00:07:30;97739.00;;;10.90;100.00
8061;BME280;4073;42.626;25.386;2023-02-28T00:09:56;97747.03;;;10.90;100.00
8061;BME280;4073;42.626;25.386;2023-02-28T00:12:22;97749.72;;;10.90;100.00
8061;BME280;4073;42.626;25.386;2023-02-28T00:14:48;97734.66;;;10.79;100.00
8061;BME280;4073;42.626;25.386;2023-02-28T00:17:13;97749.44;;;10.87;100.00
8061;BME280;4073;42.626;25.386;2023-02-28T00:19:39;97751.56;;;10.85;100.00
8061;BME280;4073;42.626;25.386;2023-02-28T00:22:04;97753.44;;;10.84;100.00
8061;BME280;4073;42.626;25.386;2023-02-28T00:24:30;97739.81;;;10.86;100.00
8061;BME280;4073;42.626;25.386;2023-02-28T00:26:56;97736.06;;;10.87;100.00
8061;BME280;4073;42.626;25.386;2023-02-28T00:29:21;97748.38;;;10.88;100.00
8061;BME280;4073;42.626;25.386;2023-02-28T00:31:47;97747.84;;;10.91;100.00
8061;BME280;4073;42.626;25.386;2023-02-28T00:34:12;97755.03;;;10.85;100.00
8061;BME280;4073;42.626;25.386;2023-02-28T00:36:37;97761.41;;;10.79;100.00
8061;BME280;4073;42.626;25.386;2023-02-28T00:39:03;97746.44;;;10.78;100.00
8061;BME280;4073;42.626;25.386;2023-02-28T00:41:29;97748.28;;;10.73;100.00
8061;BME280;4073;42.626;25.386;2023-02-28T00:43:54;97746.19;;;10.80;100.00
8061;BME280;4073;42.626;25.386;2023-02-28T00:46:19;97748.28;;;10.73;100.00
8061;BME280;4073;42.626;25.386;2023-02-28T00:48:45;97737.03;;;10.71;100.00
8061;BME280;4073;42.626;25.386;2023-02-28T00:51:10;97737.53;;;10.68;100.00
8061;BME280;4073;42.626;25.386;2023-02-28T00:53:36;97733.25;;;10.67;100.00
8061;BME280;4073;42.626;25.386;2023-02-28T00:56:02;97740.72;;;10.65;100.00
8061;BME280;4073;42.626;25.386;2023-02-28T00:58:28;97733.53;;;10.70;100.00
8061;BME280;4073;42.626;25.386;2023-02-28T01:00:54;97745.63;;;10.73;100.00
8061;BME280;4073;42.626;25.386;2023-02-28T01:03:20;97743.16;;;10.66;100.00
8061;BME280;4073;42.626;25.386;2023-02-28T01:05:46;97752.53;;;10.69;100.00
8061;BME280;4073;42.626;25.386;2023-02-28T01:08:12;97741.81;;;10.64;100.00
8061;BME280;4073;42.626;25.386;2023-02-28T01:10:39;97758.66;;;10.64;100.00
8061;BME280;4073;42.626;25.386;2023-02-28T01:13:05;97744.72;;;10.62;100.00
8061;BME280;4073;42.626;25.386;2023-02-28T01:15:30;97744.72;;;10.62;100.00
8061;BME280;4073;42.626;25.386;2023-02-28T01:17:57;97750.06;;;10.62;100.00
8061;BME280;4073;42.626;25.386;2023-02-28T01:20:22;97757.84;;;10.64;100.00
8061;BME280;4073;42.626;25.386;2023-02-28T01:22:48;97755.41;;;10.57;100.00
8061;BME280;4073;42.626;25.386;2023-02-28T01:25:13;97755.16;;;10.59;100.00
8061;BME280;4073;42.626;25.386;2023-02-28T01:27:39;97760.25;;;10.60;100.00
8061;BME280;4073;42.626;25.386;2023-02-28T01:30:06;97756.97;;;10.53;100.00
8061;BME280;4073;42.626;25.386;2023-02-28T01:32:31;97755.03;;;10.43;100.00
8061;BME280;4073;42.626;25.386;2023-02-28T01:34:57;97766.28;;;10.45;100.00
8061;BME280;4073;42.626;25.386;2023-02-28T01:37:22;97769.16;;;10.39;100.00
8061;BME280;4073;42.626;25.386;2023-02-28T01:39:48;97779.50;;;10.30;100.00
8061;BME280;4073;42.626;25.386;2023-02-28T01:42:13;97769.63;;;10.31;100.00
8061;BME280;4073;42.626;25.386;2023-02-28T01:45:05;97768.78;;;10.25;100.00
8061;BME280;4073;42.626;25.386;2023-02-28T01:47:35;97768.44;;;10.17;100.00
8061;BME280;4073;42.626;25.386;2023-02-28T01:50:04;97785.34;;;10.27;100.00
8061;BME280;4073;42.626;25.386;2023-02-28T01:52:31;97803.53;;;10.25;100.00
8061;BME280;4073;42.626;25.386;2023-02-28T01:54:59;97802.19;;;10.23;100.00
8061;BME280;4073;42.626;25.386;2023-02-28T01:57:29;97810.19;;;10.23;100.00
8061;BME280;4073;42.626;25.386;2023-02-28T02:00:05;97805.78;;;10.12;100.00
8061;BME280;4073;42.626;25.386;2023-02-28T02:02:32;97797.91;;;10.00;100.00
8061;BME280;4073;42.626;25.386;2023-02-28T02:04:59;97800.97;;;10.09;100.00
8061;BME280;4073;42.626;25.386;2023-02-28T02:07:34;97785.47;;;10.06;100.00
8061;BME280;4073;42.626;25.386;2023-02-28T02:10:16;97805.03;;;10.16;100.00
8061;BME280;4073;42.626;25.386;2023-02-28T02:15:17;97808.53;;;10.17;100.00
8061;BME280;4073;42.626;25.386;2023-02-28T02:17:48;97816.81;;;10.15;100.00
8061;BME280;4073;42.626;25.386;2023-02-28T02:20:31;97810.84;;;10.08;100.00
8061;BME280;4073;42.626;25.386;2023-02-28T02:26:16;97817.38;;;9.96;100.00
8061;BME280;4073;42.626;25.386;2023-02-28T02:39:30;97807.72;;;9.95;100.00
8061;BME280;4073;42.626;25.386;2023-02-28T02:42:01;97819.44;;;9.89;100.00
8061;BME280;4073;42.626;25.386;2023-02-28T02:44:44;97807.34;;;9.81;100.00
8061;BME280;4073;42.626;25.386;2023-02-28T02:47:19;97819.69;;;9.87;100.00
8061;BME280;4073;42.626;25.386;2023-02-28T02:49:50;97828.56;;;9.93;100.00
8061;BME280;4073;42.626;25.386;2023-02-28T02:52:18;97825.31;;;9.91;100.00
8061;BME280;4073;42.626;25.386;2023-02-28T02:54:46;97836.56;;;9.93;100.00
8061;BME280;4073;42.626;25.386;2023-02-28T02:57:19;97840.59;;;9.95;100.00
8061;BME280;4073;42.626;25.386;2023-02-28T02:59:47;97830.13;;;9.89;100.00
8061;BME280;4073;42.626;25.386;2023-02-28T03:02:16;97829.31;;;9.88;100.00
8061;BME280;4073;42.626;25.386;2023-02-28T03:04:52;97834.59;;;9.83;100.00
8061;BME280;4073;42.626;25.386;2023-02-28T03:07:19;97844.47;;;9.83;100.00
8061;BME280;4073;42.626;25.386;2023-02-28T03:09:55;97836.59;;;9.71;100.00
8061;BME280;4073;42.626;25.386;2023-02-28T03:12:24;97855.28;;;9.71;100.00
8061;BME280;4073;42.626;25.386;2023-02-28T03:20:41;97842.03;;;9.55;100.00
8061;BME280;4073;42.626;25.386;2023-02-28T03:23:35;97839.03;;;9.51;100.00
8061;BME280;4073;42.626;25.386;2023-02-28T03:26:13;97842.19;;;9.48;100.00
8061;BME280;4073;42.626;25.386;2023-02-28T03:29:05;97840.25;;;9.44;100.00
8061;BME280;4073;42.626;25.386;2023-02-28T03:31:53;97840.75;;;9.41;100.00
8061;BME280;4073;42.626;25.386;2023-02-28T03:34:29;97841.00;;;9.39;100.00
8061;BME280;4073;42.626;25.386;2023-02-28T03:37:04;97852.09;;;9.31;100.00
8061;BME280;4073;42.626;25.386;2023-02-28T03:39:55;97850.75;;;9.29;100.00
8061;BME280;4073;42.626;25.386;2023-02-28T03:42:28;97850.66;;;9.24;100.00
8061;BME280;4073;42.626;25.386;2023-02-28T03:45:32;97838.50;;;9.11;100.00
8061;BME280;4073;42.626;25.386;2023-02-28T03:48:04;97862.00;;;9.14;100.00
8061;BME280;4073;42.626;25.386;2023-02-28T03:50:41;97870.66;;;9.21;100.00
8061;BME280;4073;42.626;25.386;2023-02-28T03:53:14;97878.59;;;9.16;100.00
8061;BME280;4073;42.626;25.386;2023-02-28T03:55:44;97878.44;;;9.06;100.00
8061;BME280;4073;42.626;25.386;2023-02-28T04:00:58;97877.56;;;9.01;100.00
8061;BME280;4073;42.626;25.386;2023-02-28T04:03:32;97886.19;;;8.91;100.00
8061;BME280;4073;42.626;25.386;2023-02-28T04:05:58;97872.22;;;8.84;100.00
8061;BME280;4073;42.626;25.386;2023-02-28T04:08:24;97871.75;;;8.87;100.00
8061;BME280;4073;42.626;25.386;2023-02-28T04:10:55;97878.78;;;8.93;100.00
8061;BME280;4073;42.626;25.386;2023-02-28T04:13:21;97875.78;;;8.90;100.00
8061;BME280;4073;42.626;25.386;2023-02-28T04:15:47;97881.03;;;8.85;100.00
8061;BME280;4073;42.626;25.386;2023-02-28T04:18:12;97877.41;;;8.74;100.00
8061;BME280;4073;42.626;25.386;2023-02-28T04:20:38;97898.34;;;8.82;100.00
8061;BME280;4073;42.626;25.386;2023-02-28T04:23:03;97897.75;;;8.80;100.00
8061;BME280;4073;42.626;25.386;2023-02-28T04:25:28;97902.22;;;8.75;100.00
8061;BME280;4073;42.626;25.386;2023-02-28T04:27:54;97901.41;;;8.74;100.00
8061;BME280;4073;42.626;25.386;2023-02-28T04:30:19;97903.69;;;8.82;100.00
8061;BME280;4073;42.626;25.386;2023-02-28T04:32:45;97897.75;;;8.80;100.00
8061;BME280;4073;42.626;25.386;2023-02-28T04:35:10;97891.06;;;8.78;100.00
8061;BME280;4073;42.626;25.386;2023-02-28T04:37:36;97898.47;;;8.76;100.00
8061;BME280;4073;42.626;25.386;2023-02-28T04:40:02;97907.31;;;8.76;100.00
8061;BME280;4073;42.626;25.386;2023-02-28T04:42:28;97903.41;;;8.67;100.00
8061;BME280;4073;42.626;25.386;2023-02-28T04:45:01;97906.72;;;8.58;100.00
8061;BME280;4073;42.626;25.386;2023-02-28T04:47:27;97918.69;;;8.55;100.00
8061;BME280;4073;42.626;25.386;2023-02-28T04:49:52;97918.69;;;8.55;100.00
8061;BME280;4073;42.626;25.386;2023-02-28T04:52:17;97914.72;;;8.58;100.00
8061;BME280;4073;42.626;25.386;2023-02-28T04:54:43;97905.91;;;8.57;100.00
8061;BME280;4073;42.626;25.386;2023-02-28T04:57:08;97909.38;;;8.58;100.00
8061;BME280;4073;42.626;25.386;2023-02-28T04:59:34;97916.09;;;8.60;100.00
8061;BME280;4073;42.626;25.386;2023-02-28T05:01:59;97903.47;;;8.56;100.00
8061;BME280;4073;42.626;25.386;2023-02-28T05:04:25;97894.34;;;8.52;100.00
8061;BME280;4073;42.626;25.386;2023-02-28T05:06:50;97909.16;;;8.59;100.00
8061;BME280;4073;42.626;25.386;2023-02-28T05:09:16;97913.13;;;8.57;100.00
8061;BME280;4073;42.626;25.386;2023-02-28T05:11:41;97917.69;;;8.61;100.00
8061;BME280;4073;42.626;25.386;2023-02-28T05:14:10;97915.31;;;8.60;100.00
8061;BME280;4073;42.626;25.386;2023-02-28T05:16:36;97912.63;;;8.60;100.00
8061;BME280;4073;42.626;25.386;2023-02-28T05:19:02;97897.91;;;8.57;100.00
8061;BME280;4073;42.626;25.386;2023-02-28T05:24:02;97922.41;;;8.71;100.00
8061;BME280;4073;42.626;25.386;2023-02-28T05:26:29;97925.78;;;8.66;100.00
8061;BME280;4073;42.626;25.386;2023-02-28T05:28:54;97926.38;;;8.68;100.00
8061;BME280;4073;42.626;25.386;2023-02-28T05:31:20;97933.78;;;8.66;100.00
8061;BME280;4073;42.626;25.386;2023-02-28T05:33:46;97942.09;;;8.70;100.00
8061;BME280;4073;42.626;25.386;2023-02-28T05:36:11;97946.13;;;8.56;100.00
8061;BME280;4073;42.626;25.386;2023-02-28T05:38:36;97937.88;;;8.57;100.00
8061;BME280;4073;42.626;25.386;2023-02-28T05:41:07;97943.03;;;8.47;100.00
8061;BME280;4073;42.626;25.386;2023-02-28T05:43:33;97968.03;;;8.58;100.00
8061;BME280;4073;42.626;25.386;2023-02-28T05:45:58;97958.78;;;8.49;100.00
8061;BME280;4073;42.626;25.386;2023-02-28T05:48:24;97967.91;;;8.53;100.00
8061;BME280;4073;42.626;25.386;2023-02-28T05:50:51;97973.84;;;8.55;100.00
8061;BME280;4073;42.626;25.386;2023-02-28T05:53:16;97964.69;;;8.51;100.00
8061;BME280;4073;42.626;25.386;2023-02-28T05:55:42;97966.47;;;8.45;100.00
8061;BME280;4073;42.626;25.386;2023-02-28T05:58:07;97974.69;;;8.44;100.00
8061;BME280;4073;42.626;25.386;2023-02-28T06:00:33;97966.34;;;8.40;100.00
8061;BME280;4073;42.626;25.386;2023-02-28T06:02:58;97970.78;;;8.35;100.00
8061;BME280;4073;42.626;25.386;2023-02-28T06:05:27;97975.06;;;8.36;100.00
8061;BME280;4073;42.626;25.386;2023-02-28T06:07:53;97975.44;;;8.28;100.00
8061;BME280;4073;42.626;25.386;2023-02-28T06:10:18;97981.38;;;8.30;100.00
8061;BME280;4073;42.626;25.386;2023-02-28T06:12:45;97970.59;;;8.25;100.00
8061;BME280;4073;42.626;25.386;2023-02-28T06:15:14;97974.06;;;8.25;100.00
8061;BME280;4073;42.626;25.386;2023-02-28T06:17:40;97981.84;;;8.27;100.00
8061;BME280;4073;42.626;25.386;2023-02-28T06:20:07;97978.69;;;8.30;100.00
8061;BME280;4073;42.626;25.386;2023-02-28T06:22:34;97981.69;;;8.33;100.00
8061;BME280;4073;42.626;25.386;2023-02-28T06:25:00;97982.25;;;8.35;100.00
8061;BME280;4073;42.626;25.386;2023-02-28T06:27:26;97971.19;;;8.27;100.00
8061;BME280;4073;42.626;25.386;2023-02-28T06:29:54;97986.78;;;8.35;100.00
8061;BME280;4073;42.626;25.386;2023-02-28T06:32:21;97986.31;;;8.38;100.00
8061;BME280;4073;42.626;25.386;2023-02-28T06:34:46;97976.94;;;8.35;100.00
8061;BME280;4073;42.626;25.386;2023-02-28T06:37:12;97993.34;;;8.44;100.00
8061;BME280;4073;42.626;25.386;2023-02-28T06:39:37;97997.16;;;8.48;100.00
8061;BME280;4073;42.626;25.386;2023-02-28T06:42:03;97983.59;;;8.49;100.00
8061;BME280;4073;42.626;25.386;2023-02-28T06:44:29;97994.75;;;8.63;100.00
8061;BME280;4073;42.626;25.386;2023-02-28T06:47:01;97992.03;;;8.74;100.00
8061;BME280;4073;42.626;25.386;2023-02-28T06:49:29;97984.28;;;8.73;100.00
8061;BME280;4073;42.626;25.386;2023-02-28T06:51:54;97976.03;;;8.74;100.00
8061;BME280;4073;42.626;25.386;2023-02-28T06:54:20;97986.56;;;8.81;100.00
8061;BME280;4073;42.626;25.386;2023-02-28T06:56:45;97989.91;;;8.88;100.00
8061;BME280;4073;42.626;25.386;2023-02-28T06:59:12;97985.28;;;9.00;100.00
8061;BME280;4073;42.626;25.386;2023-02-28T07:01:37;97994.34;;;8.99;100.00
8061;BME280;4073;42.626;25.386;2023-02-28T07:04:05;98005.19;;;9.09;100.00
8061;BME280;4073;42.626;25.386;2023-02-28T07:06:31;98002.16;;;9.05;100.00
8061;BME280;4073;42.626;25.386;2023-02-28T07:08:57;97997.00;;;8.99;100.00
8061;BME280;4073;42.626;25.386;2023-02-28T07:11:26;98001.63;;;9.03;100.00
8061;BME280;4073;42.626;25.386;2023-02-28T07:13:56;98003.00;;;9.06;100.00
8061;BME280;4073;42.626;25.386;2023-02-28T07:16:22;97996.44;;;8.97;100.00
8061;BME280;4073;42.626;25.386;2023-02-28T07:18:48;98005.19;;;9.09;100.00
8061;BME280;4073;42.626;25.386;2023-02-28T07:21:15;98002.16;;;9.05;100.00
8061;BME280;4073;42.626;25.386;2023-02-28T07:23:40;98007.38;;;9.12;100.00
8061;BME280;4073;42.626;25.386;2023-02-28T07:26:10;98016.50;;;9.16;100.00
8061;BME280;4073;42.626;25.386;2023-02-28T07:28:36;98014.31;;;9.13;100.00
8061;BME280;4073;42.626;25.386;2023-02-28T07:31:06;98008.50;;;9.16;100.00
8061;BME280;4073;42.626;25.386;2023-02-28T07:33:32;98013.94;;;9.21;100.00
8061;BME280;4073;42.626;25.386;2023-02-28T07:36:07;98018.44;;;9.20;100.00
8061;BME280;4073;42.626;25.386;2023-02-28T07:38:34;98013.94;;;9.21;100.00
8061;BME280;4073;42.626;25.386;2023-02-28T07:41:00;98026.75;;;9.24;100.00
8061;BME280;4073;42.626;25.386;2023-02-28T07:43:30;98030.66;;;9.16;100.00
8061;BME280;4073;42.626;25.386;2023-02-28T07:46:01;98009.03;;;9.01;100.00
8061;BME280;4073;42.626;25.386;2023-02-28T07:48:27;98037.25;;;9.14;100.00
8061;BME280;4073;42.626;25.386;2023-02-28T07:50:56;98029.53;;;9.12;100.00
8061;BME280;4073;42.626;25.386;2023-02-28T07:53:22;98031.94;;;9.14;100.00
8061;BME280;4073;42.626;25.386;2023-02-28T07:55:47;98032.84;;;9.19;100.00
8061;BME280;4073;42.626;25.386;2023-02-28T07:58:13;98028.28;;;9.20;100.00
8061;BME280;4073;42.626;25.386;2023-02-28T08:00:38;98015.44;;;9.17;100.00
8061;BME280;4073;42.626;25.386;2023-02-28T08:03:04;98021.66;;;9.22;100.00
8061;BME280;4073;42.626;25.386;2023-02-28T08:05:29;98017.78;;;9.30;100.00
8061;BME280;4073;42.626;25.386;2023-02-28T08:07:56;98031.72;;;9.32;100.00
8061;BME280;4073;42.626;25.386;2023-02-28T08:10:21;98021.84;;;9.16;100.00
8061;BME280;4073;42.626;25.386;2023-02-28T08:12:47;98023.53;;;9.22;100.00
8061;BME280;4073;42.626;25.386;2023-02-28T08:15:13;98034.94;;;9.17;100.00
8061;BME280;4073;42.626;25.386;2023-02-28T08:17:38;98031.78;;;9.20;100.00
8061;BME280;4073;42.626;25.386;2023-02-28T08:20:04;98036.47;;;9.13;100.00
8061;BME280;4073;42.626;25.386;2023-02-28T08:22:30;98024.03;;;9.02;100.00
8061;BME280;4073;42.626;25.386;2023-02-28T08:24:55;98021.97;;;8.93;100.00
8061;BME280;4073;42.626;25.386;2023-02-28T08:27:21;98041.16;;;9.06;100.00
8061;BME280;4073;42.626;25.386;2023-02-28T08:29:46;98027.72;;;9.01;100.00
8061;BME280;4073;42.626;25.386;2023-02-28T08:32:12;98022.38;;;9.01;100.00
8061;BME280;4073;42.626;25.386;2023-02-28T08:34:39;98029.00;;;8.99;100.00
8061;BME280;4073;42.626;25.386;2023-02-28T08:37:05;98026.34;;;8.99;100.00
8061;BME280;4073;42.626;25.386;2023-02-28T08:39:34;98028.44;;;8.97;100.00
8061;BME280;4073;42.626;25.386;2023-02-28T08:41:59;98025.75;;;8.97;100.00
8061;BME280;4073;42.626;25.386;2023-02-28T08:44:25;98026.44;;;9.04;100.00
8061;BME280;4073;42.626;25.386;2023-02-28T08:46:50;98029.97;;;8.93;100.00
8061;BME280;4073;42.626;25.386;2023-02-28T08:49:15;98052.44;;;8.97;100.00
8061;BME280;4073;42.626;25.386;2023-02-28T08:51:41;98046.53;;;8.95;100.00
8061;BME280;4073;42.626;25.386;2023-02-28T08:54:08;98044.84;;;8.89;100.00
8061;BME280;4073;42.626;25.386;2023-02-28T08:56:33;98047.50;;;8.89;100.00
8061;BME280;4073;42.626;25.386;2023-02-28T08:58:59;98054.69;;;8.88;100.00
8061;BME280;4073;42.626;25.386;2023-02-28T09:01:27;98041.44;;;8.77;100.00
8061;BME280;4073;42.626;25.386;2023-02-28T09:03:53;98052.84;;;8.89;100.00
8061;BME280;4073;42.626;25.386;2023-02-28T09:06:21;98055.84;;;8.92;100.00
8061;BME280;4073;42.626;25.386;2023-02-28T09:08:47;98049.34;;;8.88;100.00
8061;BME280;4073;42.626;25.386;2023-02-28T09:11:12;98054.13;;;8.86;100.00
8061;BME280;4073;42.626;25.386;2023-02-28T09:13:39;98042.50;;;8.92;100.00
8061;BME280;4073;42.626;25.386;2023-02-28T09:16:07;98043.97;;;9.00;100.00
8061;BME280;4073;42.626;25.386;2023-02-28T09:18:36;98051.25;;;9.04;100.00
8061;BME280;4073;42.626;25.386;2023-02-28T09:21:07;98049.63;;;9.03;100.00
8061;BME280;4073;42.626;25.386;2023-02-28T09:23:32;98043.59;;;9.08;100.00
8061;BME280;4073;42.626;25.386;2023-02-28T09:25:58;98057.16;;;9.06;100.00
8061;BME280;4073;42.626;25.386;2023-02-28T09:28:23;98046.25;;;9.08;100.00
8061;BME280;4073;42.626;25.386;2023-02-28T09:30:51;98049.47;;;9.10;100.00
8061;BME280;4073;42.626;25.386;2023-02-28T09:33:18;98052.25;;;9.15;100.00
8061;BME280;4073;42.626;25.386;2023-02-28T09:35:49;98059.28;;;9.21;100.00
8061;BME280;4073;42.626;25.386;2023-02-28T09:38:15;98049.41;;;9.05;100.00
8061;BME280;4073;42.626;25.386;2023-02-28T09:40:52;98048.34;;;9.06;100.00
8061;BME280;4073;42.626;25.386;2023-02-28T09:43:23;98054.66;;;9.16;100.00
8061;BME280;4073;42.626;25.386;2023-02-28T09:45:52;98049.00;;;9.13;100.00
8061;BME280;4073;42.626;25.386;2023-02-28T09:48:28;98045.03;;;9.15;100.00
8061;BME280;4073;42.626;25.386;2023-02-28T09:51:03;98040.44;;;9.27;100.00
8061;BME280;4073;42.626;25.386;2023-02-28T09:53:35;98048.84;;;9.36;100.00
8061;BME280;4073;42.626;25.386;2023-02-28T09:59:01;98038.59;;;9.28;100.00
8061;BME280;4073;42.626;25.386;2023-02-28T10:04:49;98030.59;;;9.28;100.00
8061;BME280;4073;42.626;25.386;2023-02-28T10:09:47;98035.16;;;9.32;100.00
8061;BME280;4073;42.626;25.386;2023-02-28T10:12:15;98026.22;;;9.22;100.00
8061;BME280;4073;42.626;25.386;2023-02-28T10:14:45;98028.06;;;9.21;100.00
8061;BME280;4073;42.626;25.386;2023-02-28T10:17:14;98021.34;;;9.19;100.00
8061;BME280;4073;42.626;25.386;2023-02-28T10:22:35;98012.59;;;9.07;100.00
8061;BME280;4073;42.626;25.386;2023-02-28T10:25:21;98014.00;;;9.09;100.00
8061;BME280;4073;42.626;25.386;2023-02-28T10:27:48;98005.41;;;9.07;100.00
8061;BME280;4073;42.626;25.386;2023-02-28T10:30:14;98007.25;;;9.07;100.00
8061;BME280;4073;42.626;25.386;2023-02-28T10:32:43;97995.56;;;9.08;100.00
8061;BME280;4073;42.626;25.386;2023-02-28T10:35:24;97992.50;;;9.16;100.00
8061;BME280;4073;42.626;25.386;2023-02-28T10:38:00;97987.25;;;9.21;100.00
8061;BME280;4073;42.626;25.386;2023-02-28T10:40:32;97986.00;;;9.28;100.00
8061;BME280;4073;42.626;25.386;2023-02-28T10:43:04;97971.38;;;9.31;100.00
8061;BME280;4073;42.626;25.386;2023-02-28T10:45:34;97967.81;;;9.42;100.00
8061;BME280;4073;42.626;25.386;2023-02-28T10:50:44;97977.72;;;9.63;100.00
8061;BME280;4073;42.626;25.386;2023-02-28T10:58:27;97950.94;;;9.74;100.00
8061;BME280;4073;42.626;25.386;2023-02-28T11:00:54;97954.50;;;9.85;100.00
8061;BME280;4073;42.626;25.386;2023-02-28T11:03:31;97945.75;;;9.89;100.00
8061;BME280;4073;42.626;25.386;2023-02-28T11:05:58;97949.50;;;9.88;100.00
8061;BME280;4073;42.626;25.386;2023-02-28T11:08:28;97951.69;;;9.91;100.00
8061;BME280;4073;42.626;25.386;2023-02-28T11:10:57;97948.44;;;9.89;100.00
8061;BME280;4073;42.626;25.386;2023-02-28T11:13:43;97950.38;;;9.94;100.00
8061;BME280;4073;42.626;25.386;2023-02-28T11:16:11;97945.66;;;10.01;100.00
8061;BME280;4073;42.626;25.386;2023-02-28T11:18:50;97937.63;;;10.01;100.00
8061;BME280;4073;42.626;25.386;2023-02-28T11:21:36;97937.00;;;9.94;100.00
8061;BME280;4073;42.626;25.386;2023-02-28T11:24:26;97936.50;;;9.75;100.00
8061;BME280;4073;42.626;25.386;2023-02-28T11:26:52;97940.78;;;9.76;100.00
8061;BME280;4073;42.626;25.386;2023-02-28T11:29:29;97943.97;;;9.73;100.00
8061;BME280;4073;42.626;25.386;2023-02-28T11:34:37;97934.53;;;9.66;100.00
8061;BME280;4073;42.626;25.386;2023-02-28T11:37:05;97930.31;;;9.70;100.00
8061;BME280;4073;42.626;25.386;2023-02-28T11:39:34;97932.41;;;9.68;100.00
8061;BME280;4073;42.626;25.386;2023-02-28T11:42:05;97931.53;;;9.62;100.00
8061;BME280;4073;42.626;25.386;2023-02-28T11:47:41;97915.94;;;9.54;100.00
8061;BME280;4073;42.626;25.386;2023-02-28T11:50:42;97920.16;;;9.50;100.00
8061;BME280;4073;42.626;25.386;2023-02-28T11:53:13;97924.38;;;9.46;100.00
8061;BME280;4073;42.626;25.386;2023-02-28T11:56:10;97920.06;;;9.45;100.00
8061;BME280;4073;42.626;25.386;2023-02-28T12:01:18;97918.47;;;9.44;100.00
8061;BME280;4073;42.626;25.386;2023-02-28T12:06:38;97918.00;;;9.31;100.00
8061;BME280;4073;42.626;25.386;2023-02-28T12:09:29;97926.09;;;9.36;100.00
8061;BME280;4073;42.626;25.386;2023-02-28T12:20:53;97920.59;;;9.26;100.00
8061;BME280;4073;42.626;25.386;2023-02-28T12:26:42;97922.84;;;9.34;100.00
8061;BME280;4073;42.626;25.386;2023-02-28T12:29:24;97926.75;;;9.26;100.00
8061;BME280;4073;42.626;25.386;2023-02-28T12:32:11;97925.69;;;9.27;100.00
8061;BME280;4073;42.626;25.386;2023-02-28T12:34:43;97929.34;;;9.21;100.00
8061;BME280;4073;42.626;25.386;2023-02-28T12:37:18;97940.19;;;9.15;100.00
8061;BME280;4073;42.626;25.386;2023-02-28T12:39:50;97924.91;;;9.10;100.00
8061;BME280;4073;42.626;25.386;2023-02-28T12:42:27;97923.84;;;9.11;100.00
8061;BME280;4073;42.626;25.386;2023-02-28T12:44:59;97923.13;;;9.16;100.00
8061;BME280;4073;42.626;25.386;2023-02-28T12:47:26;97935.88;;;9.14;100.00
8061;BME280;4073;42.626;25.386;2023-02-28T12:50:02;97932.81;;;9.05;100.00
8061;BME280;4073;42.626;25.386;2023-02-28T12:52:40;97930.72;;;9.07;100.00
8061;BME280;4073;42.626;25.386;2023-02-28T12:55:21;97929.91;;;9.07;100.00
8061;BME280;4073;42.626;25.386;2023-02-28T13:00:59;97931.78;;;9.06;100.00
8061;BME280;4073;42.626;25.386;2023-02-28T13:09:24;97927.72;;;9.20;100.00
8061;BME280;4073;42.626;25.386;2023-02-28T13:11:52;97917.38;;;9.24;100.00
8061;BME280;4073;42.626;25.386;2023-02-28T13:14:20;97919.78;;;9.25;100.00
8061;BME280;4073;42.626;25.386;2023-02-28T13:19:57;97913.91;;;9.23;100.00
8061;BME280;4073;42.626;25.386;2023-02-28T13:22:39;97909.88;;;9.21;100.00
8061;BME280;4073;42.626;25.386;2023-02-28T13:27:58;97925.47;;;9.29;100.00
8061;BME280;4073;42.626;25.386;2023-02-28T13:36:07;97914.78;;;9.29;100.00
8061;BME280;4073;42.626;25.386;2023-02-28T13:38:53;97907.84;;;9.28;100.00
8061;BME280;4073;42.626;25.386;2023-02-28T13:49:29;97912.38;;;9.27;100.00
8061;BME280;4073;42.626;25.386;2023-02-28T13:55:09;97905.91;;;9.23;100.00
8061;BME280;4073;42.626;25.386;2023-02-28T14:00:46;97918.69;;;9.05;100.00
8061;BME280;4073;42.626;25.386;2023-02-28T14:06:16;97907.28;;;8.93;100.00
8061;BME280;4073;42.626;25.386;2023-02-28T14:08:55;97903.84;;;8.92;100.00
8061;BME280;4073;42.626;25.386;2023-02-28T14:11:31;97888.81;;;8.86;100.00
8061;BME280;4073;42.626;25.386;2023-02-28T14:13:57;97896.22;;;8.84;100.00
8061;BME280;4073;42.626;25.386;2023-02-28T14:16:25;97885.41;;;8.74;100.00
8061;BME280;4073;42.626;25.386;2023-02-28T14:19:00;97901.63;;;8.73;100.00
8061;BME280;4073;42.626;25.386;2023-02-28T14:21:33;97893.47;;;8.63;100.00
8061;BME280;4073;42.626;25.386;2023-02-28T14:24:31;97897.19;;;8.45;100.00
8061;BME280;4073;42.626;25.386;2023-02-28T14:27:22;97901.03;;;8.38;100.00
8061;BME280;4073;42.626;25.386;2023-02-28T14:32:58;97905.78;;;8.36;100.00
8061;BME280;4073;42.626;25.386;2023-02-28T14:38:25;97902.97;;;8.26;100.00
8061;BME280;4073;42.626;25.386;2023-02-28T14:40:57;97908.88;;;8.16;100.00
8061;BME280;4073;42.626;25.386;2023-02-28T14:43:28;97910.88;;;8.09;100.00
8061;BME280;4073;42.626;25.386;2023-02-28T14:46:05;97924.09;;;8.04;100.00
8061;BME280;4073;42.626;25.386;2023-02-28T14:48:32;97918.91;;;7.97;100.00
8061;BME280;4073;42.626;25.386;2023-02-28T14:51:00;97915.56;;;7.90;100.00
8061;BME280;4073;42.626;25.386;2023-02-28T14:53:28;97907.50;;;7.85;100.00
8061;BME280;4073;42.626;25.386;2023-02-28T14:55:54;97914.41;;;7.86;100.00
8061;BME280;4073;42.626;25.386;2023-02-28T14:58:28;97913.84;;;7.84;100.00
8061;BME280;4073;42.626;25.386;2023-02-28T15:01:00;97904.72;;;7.80;100.00
8061;BME280;4073;42.626;25.386;2023-02-28T15:03:35;97912.38;;;7.77;100.00
8061;BME280;4073;42.626;25.386;2023-02-28T15:06:11;97920.59;;;7.75;100.00
8061;BME280;4073;42.626;25.386;2023-02-28T15:08:37;97911.03;;;7.63;100.00
8061;BME280;4073;42.626;25.386;2023-02-28T15:11:08;97894.38;;;7.56;100.00
8061;BME280;4073;42.626;25.386;2023-02-28T15:13:44;97916.13;;;7.64;100.00
8061;BME280;4073;42.626;25.386;2023-02-28T15:16:22;97918.19;;;7.62;100.00